sensor_id;sensor_type;location;lat;lon;timestamp;temperature;humidity
54788;DHT22;59598;48.112;16.280;2023-04-06T00:01:16;1.10;99.90
54788;DHT22;59598;48.112;16.280;2023-04-06T00:03:47;1.10;99.90
54788;DHT22;59598;48.112;16.280;2023-04-06T00:06:19;1.10;99.90
54788;DHT22;59598;48.112;16.280;2023-04-06T00:08:51;1.00;99.90
54788;DHT22;59598;48.112;16.280;2023-04-06T00:11:25;0.90;99.90
54788;DHT22;59598;48.112;16.280;2023-04-06T00:14:04;0.90;99.90
54788;DHT22;59598;48.112;16.280;2023-04-06T00:16:42;0.90;99.90
54788;DHT22;59598;48.112;16.280;2023-04-06T00:19:16;0.80;99.90
54788;DHT22;59598;48.112;16.280;2023-04-06T00:21:49;0.80;99.90
54788;DHT22;59598;48.112;16.280;2023-04-06T00:24:21;0.90;99.90
54788;DHT22;59598;48.112;16.280;2023-04-06T00:26:55;0.80;99.90
54788;DHT22;59598;48.112;16.280;2023-04-06T00:29:29;0.80;99.90
54788;DHT22;59598;48.112;16.280;2023-04-06T00:32:03;0.90;99.90
54788;DHT22;59598;48.112;16.280;2023-04-06T00:34:35;0.80;99.90
54788;DHT22;59598;48.112;16.280;2023-04-06T00:37:12;0.80;99.90
54788;DHT22;59598;48.112;16.280;2023-04-06T00:39:46;0.90;99.90
54788;DHT22;59598;48.112;16.280;2023-04-06T00:42:18;0.90;99.90
54788;DHT22;59598;48.112;16.280;2023-04-06T00:44:58;1.00;99.90
54788;DHT22;59598;48.112;16.280;2023-04-06T00:47:34;1.00;99.90
54788;DHT22;59598;48.112;16.280;2023-04-06T00:50:08;1.00;99.90
54788;DHT22;59598;48.112;16.280;2023-04-06T00:52:39;0.90;99.90
54788;DHT22;59598;48.112;16.280;2023-04-06T00:55:11;1.00;99.90
54788;DHT22;59598;48.112;16.280;2023-04-06T00:57:44;0.90;99.90
54788;DHT22;59598;48.112;16.280;2023-04-06T01:00:18;1.00;99.90
54788;DHT22;59598;48.112;16.280;2023-04-06T01:02:50;0.90;99.90
54788;DHT22;59598;48.112;16.280;2023-04-06T01:05:36;0.80;99.90
54788;DHT22;59598;48.112;16.280;2023-04-06T01:08:19;0.70;99.90
54788;DHT22;59598;48.112;16.280;2023-04-06T01:10:53;0.80;99.90
54788;DHT22;59598;48.112;16.280;2023-04-06T01:13:24;0.80;99.90
54788;DHT22;59598;48.112;16.280;2023-04-06T01:15:59;0.80;99.90
54788;DHT22;59598;48.112;16.280;2023-04-06T01:18:34;0.80;99.90
54788;DHT22;59598;48.112;16.280;2023-04-06T01:21:06;0.70;99.90
54788;DHT22;59598;48.112;16.280;2023-04-06T01:23:39;0.60;99.90
54788;DHT22;59598;48.112;16.280;2023-04-06T01:26:11;0.60;99.90
54788;DHT22;59598;48.112;16.280;2023-04-06T01:28:48;0.60;99.90
54788;DHT22;59598;48.112;16.280;2023-04-06T01:31:19;0.70;99.90
54788;DHT22;59598;48.112;16.280;2023-04-06T01:33:51;0.70;99.90
54788;DHT22;59598;48.112;16.280;2023-04-06T01:36:25;0.70;99.90
54788;DHT22;59598;48.112;16.280;2023-04-06T01:38:56;0.70;99.90
54788;DHT22;59598;48.112;16.280;2023-04-06T01:41:30;0.70;99.90
54788;DHT22;59598;48.112;16.280;2023-04-06T01:44:04;0.70;99.90
54788;DHT22;59598;48.112;16.280;2023-04-06T01:46:35;0.80;99.90
54788;DHT22;59598;48.112;16.280;2023-04-06T01:49:10;0.70;99.90
54788;DHT22;59598;48.112;16.280;2023-04-06T01:51:41;0.70;99.90
54788;DHT22;59598;48.112;16.280;2023-04-06T01:54:15;0.70;99.90
54788;DHT22;59598;48.112;16.280;2023-04-06T01:56:49;0.70;99.90
54788;DHT22;59598;48.112;16.280;2023-04-06T01:59:22;0.70;99.90
54788;DHT22;59598;48.112;16.280;2023-04-06T02:01:58;0.70;99.90
54788;DHT22;59598;48.112;16.280;2023-04-06T02:04:30;0.70;99.90
54788;DHT22;59598;48.112;16.280;2023-04-06T02:07:01;0.60;99.90
54788;DHT22;59598;48.112;16.280;2023-04-06T02:09:37;0.70;99.90
54788;DHT22;59598;48.112;16.280;2023-04-06T02:12:13;0.60;99.90
54788;DHT22;59598;48.112;16.280;2023-04-06T02:14:46;0.50;99.90
54788;DHT22;59598;48.112;16.280;2023-04-06T02:17:17;0.50;99.90
54788;DHT22;59598;48.112;16.280;2023-04-06T02:19:50;0.50;99.90
54788;DHT22;59598;48.112;16.280;2023-04-06T02:22:21;0.50;99.90
54788;DHT22;59598;48.112;16.280;2023-04-06T02:24:53;0.50;99.90
54788;DHT22;59598;48.112;16.280;2023-04-06T02:27:24;0.50;99.90
54788;DHT22;59598;48.112;16.280;2023-04-06T02:29:55;0.50;99.90
54788;DHT22;59598;48.112;16.280;2023-04-06T02:32:33;0.40;1.00
54788;DHT22;59598;48.112;16.280;2023-04-06T02:35:10;0.40;1.00
54788;DHT22;59598;48.112;16.280;2023-04-06T02:37:44;0.40;1.00
54788;DHT22;59598;48.112;16.280;2023-04-06T02:40:18;0.30;1.00
54788;DHT22;59598;48.112;16.280;2023-04-06T02:42:54;0.20;1.00
54788;DHT22;59598;48.112;16.280;2023-04-06T02:45:28;0.20;1.00
54788;DHT22;59598;48.112;16.280;2023-04-06T02:48:02;0.30;1.00
54788;DHT22;59598;48.112;16.280;2023-04-06T02:50:34;0.30;1.00
54788;DHT22;59598;48.112;16.280;2023-04-06T02:53:10;0.50;1.00
54788;DHT22;59598;48.112;16.280;2023-04-06T02:55:44;0.60;1.00
54788;DHT22;59598;48.112;16.280;2023-04-06T02:58:17;0.60;1.00
54788;DHT22;59598;48.112;16.280;2023-04-06T03:00:52;0.60;1.00
54788;DHT22;59598;48.112;16.280;2023-04-06T03:03:25;0.70;1.00
54788;DHT22;59598;48.112;16.280;2023-04-06T03:05:57;0.70;1.00
54788;DHT22;59598;48.112;16.280;2023-04-06T03:08:34;0.80;1.00
54788;DHT22;59598;48.112;16.280;2023-04-06T03:11:07;0.80;1.00
54788;DHT22;59598;48.112;16.280;2023-04-06T03:13:39;0.90;1.00
54788;DHT22;59598;48.112;16.280;2023-04-06T03:16:18;0.80;1.00
54788;DHT22;59598;48.112;16.280;2023-04-06T03:18:52;0.80;1.00
54788;DHT22;59598;48.112;16.280;2023-04-06T03:21:23;0.80;1.00
54788;DHT22;59598;48.112;16.280;2023-04-06T03:23:54;0.90;1.00
54788;DHT22;59598;48.112;16.280;2023-04-06T03:26:33;0.80;1.00
54788;DHT22;59598;48.112;16.280;2023-04-06T03:29:09;0.90;1.00
54788;DHT22;59598;48.112;16.280;2023-04-06T03:31:42;0.80;1.00
54788;DHT22;59598;48.112;16.280;2023-04-06T03:34:14;0.80;1.00
54788;DHT22;59598;48.112;16.280;2023-04-06T03:36:49;0.80;1.00
54788;DHT22;59598;48.112;16.280;2023-04-06T03:39:23;0.90;1.00
54788;DHT22;59598;48.112;16.280;2023-04-06T03:42:02;0.90;1.00
54788;DHT22;59598;48.112;16.280;2023-04-06T03:44:36;0.80;1.00
54788;DHT22;59598;48.112;16.280;2023-04-06T03:47:07;0.80;1.00
54788;DHT22;59598;48.112;16.280;2023-04-06T03:49:38;0.80;1.00
54788;DHT22;59598;48.112;16.280;2023-04-06T03:52:12;0.80;1.00
54788;DHT22;59598;48.112;16.280;2023-04-06T03:54:46;0.80;1.00
54788;DHT22;59598;48.112;16.280;2023-04-06T03:57:19;0.80;1.00
54788;DHT22;59598;48.112;16.280;2023-04-06T03:59:50;0.90;1.00
54788;DHT22;59598;48.112;16.280;2023-04-06T04:02:23;0.90;1.00
54788;DHT22;59598;48.112;16.280;2023-04-06T04:04:55;0.90;1.00
54788;DHT22;59598;48.112;16.280;2023-04-06T04:07:26;1.00;1.00
54788;DHT22;59598;48.112;16.280;2023-04-06T04:09:58;0.90;1.00
54788;DHT22;59598;48.112;16.280;2023-04-06T04:12:29;0.90;1.00
54788;DHT22;59598;48.112;16.280;2023-04-06T04:15:00;0.90;1.00
54788;DHT22;59598;48.112;16.280;2023-04-06T04:17:34;0.80;1.00
54788;DHT22;59598;48.112;16.280;2023-04-06T04:20:06;0.80;1.00
54788;DHT22;59598;48.112;16.280;2023-04-06T04:22:37;0.80;1.00
54788;DHT22;59598;48.112;16.280;2023-04-06T04:25:11;0.80;1.00
54788;DHT22;59598;48.112;16.280;2023-04-06T04:27:43;0.90;1.00
54788;DHT22;59598;48.112;16.280;2023-04-06T04:30:17;0.90;1.00
54788;DHT22;59598;48.112;16.280;2023-04-06T04:32:53;1.00;1.00
54788;DHT22;59598;48.112;16.280;2023-04-06T04:35:27;1.00;1.00
54788;DHT22;59598;48.112;16.280;2023-04-06T04:38:00;1.00;1.00
54788;DHT22;59598;48.112;16.280;2023-04-06T04:40:37;0.90;1.00
54788;DHT22;59598;48.112;16.280;2023-04-06T04:43:08;1.00;1.00
54788;DHT22;59598;48.112;16.280;2023-04-06T04:45:43;1.00;1.00
54788;DHT22;59598;48.112;16.280;2023-04-06T04:48:15;1.00;1.00
54788;DHT22;59598;48.112;16.280;2023-04-06T04:50:46;1.00;1.00
54788;DHT22;59598;48.112;16.280;2023-04-06T04:53:18;1.10;1.00
54788;DHT22;59598;48.112;16.280;2023-04-06T04:55:49;1.20;1.00
54788;DHT22;59598;48.112;16.280;2023-04-06T04:58:28;1.20;1.00
54788;DHT22;59598;48.112;16.280;2023-04-06T05:01:08;1.20;1.00
54788;DHT22;59598;48.112;16.280;2023-04-06T05:03:42;1.20;1.00
54788;DHT22;59598;48.112;16.280;2023-04-06T05:06:13;1.20;1.00
54788;DHT22;59598;48.112;16.280;2023-04-06T05:08:44;1.20;1.00
54788;DHT22;59598;48.112;16.280;2023-04-06T05:11:18;1.20;1.00
54788;DHT22;59598;48.112;16.280;2023-04-06T05:13:52;1.30;1.00
54788;DHT22;59598;48.112;16.280;2023-04-06T05:16:23;1.40;1.00
54788;DHT22;59598;48.112;16.280;2023-04-06T05:18:54;1.40;1.00
54788;DHT22;59598;48.112;16.280;2023-04-06T05:21:27;1.40;1.00
54788;DHT22;59598;48.112;16.280;2023-04-06T05:23:59;1.50;1.00
54788;DHT22;59598;48.112;16.280;2023-04-06T05:26:33;1.60;1.00
54788;DHT22;59598;48.112;16.280;2023-04-06T05:29:06;1.70;1.00
54788;DHT22;59598;48.112;16.280;2023-04-06T05:31:38;1.80;1.00
54788;DHT22;59598;48.112;16.280;2023-04-06T05:34:09;1.80;1.00
54788;DHT22;59598;48.112;16.280;2023-04-06T05:36:43;1.90;1.00
54788;DHT22;59598;48.112;16.280;2023-04-06T05:39:17;1.90;1.00
54788;DHT22;59598;48.112;16.280;2023-04-06T05:41:54;1.90;1.00
54788;DHT22;59598;48.112;16.280;2023-04-06T05:44:26;2.10;1.00
54788;DHT22;59598;48.112;16.280;2023-04-06T05:46:58;2.10;1.00
54788;DHT22;59598;48.112;16.280;2023-04-06T05:49:29;2.10;1.00
54788;DHT22;59598;48.112;16.280;2023-04-06T05:52:01;2.10;1.00
54788;DHT22;59598;48.112;16.280;2023-04-06T05:54:38;2.20;1.00
54788;DHT22;59598;48.112;16.280;2023-04-06T05:57:09;2.20;1.00
54788;DHT22;59598;48.112;16.280;2023-04-06T05:59:43;2.30;1.00
54788;DHT22;59598;48.112;16.280;2023-04-06T06:02:17;2.40;1.00
54788;DHT22;59598;48.112;16.280;2023-04-06T06:04:48;2.40;1.00
54788;DHT22;59598;48.112;16.280;2023-04-06T06:07:25;2.50;1.00
54788;DHT22;59598;48.112;16.280;2023-04-06T06:10:00;2.60;1.00
54788;DHT22;59598;48.112;16.280;2023-04-06T06:12:31;2.60;1.00
54788;DHT22;59598;48.112;16.280;2023-04-06T06:15:05;2.70;99.90
54788;DHT22;59598;48.112;16.280;2023-04-06T06:17:36;2.70;99.90
54788;DHT22;59598;48.112;16.280;2023-04-06T06:20:09;2.80;99.90
54788;DHT22;59598;48.112;16.280;2023-04-06T06:22:44;2.80;99.90
54788;DHT22;59598;48.112;16.280;2023-04-06T06:25:15;2.80;99.90
54788;DHT22;59598;48.112;16.280;2023-04-06T06:27:46;2.90;99.90
54788;DHT22;59598;48.112;16.280;2023-04-06T06:30:18;2.90;99.90
54788;DHT22;59598;48.112;16.280;2023-04-06T06:32:50;3.00;99.90
54788;DHT22;59598;48.112;16.280;2023-04-06T06:35:22;3.10;1.00
54788;DHT22;59598;48.112;16.280;2023-04-06T06:37:54;3.20;99.90
54788;DHT22;59598;48.112;16.280;2023-04-06T06:40:25;3.30;99.90
54788;DHT22;59598;48.112;16.280;2023-04-06T06:42:57;3.30;99.90
54788;DHT22;59598;48.112;16.280;2023-04-06T06:45:31;3.40;99.90
54788;DHT22;59598;48.112;16.280;2023-04-06T06:48:07;3.60;99.90
54788;DHT22;59598;48.112;16.280;2023-04-06T06:50:41;3.60;99.90
54788;DHT22;59598;48.112;16.280;2023-04-06T06:53:15;3.60;99.90
54788;DHT22;59598;48.112;16.280;2023-04-06T06:55:49;3.70;99.90
54788;DHT22;59598;48.112;16.280;2023-04-06T06:58:28;3.80;99.90
54788;DHT22;59598;48.112;16.280;2023-04-06T07:01:03;3.80;99.90
54788;DHT22;59598;48.112;16.280;2023-04-06T07:03:38;4.00;99.90
54788;DHT22;59598;48.112;16.280;2023-04-06T07:06:14;4.20;99.90
54788;DHT22;59598;48.112;16.280;2023-04-06T07:08:46;4.30;99.90
54788;DHT22;59598;48.112;16.280;2023-04-06T07:11:25;4.10;99.90
54788;DHT22;59598;48.112;16.280;2023-04-06T07:13:59;4.10;1.00
54788;DHT22;59598;48.112;16.280;2023-04-06T07:16:30;4.20;1.00
54788;DHT22;59598;48.112;16.280;2023-04-06T07:19:04;4.30;1.00
54788;DHT22;59598;48.112;16.280;2023-04-06T07:21:35;4.30;99.90
54788;DHT22;59598;48.112;16.280;2023-04-06T07:24:07;4.50;1.00
54788;DHT22;59598;48.112;16.280;2023-04-06T07:26:42;4.50;1.00
54788;DHT22;59598;48.112;16.280;2023-04-06T07:29:19;4.60;1.00
54788;DHT22;59598;48.112;16.280;2023-04-06T07:31:55;4.70;1.00
54788;DHT22;59598;48.112;16.280;2023-04-06T07:34:29;4.70;1.00
54788;DHT22;59598;48.112;16.280;2023-04-06T07:37:00;4.70;1.00
54788;DHT22;59598;48.112;16.280;2023-04-06T07:39:32;4.80;1.00
54788;DHT22;59598;48.112;16.280;2023-04-06T07:42:06;5.00;1.00
54788;DHT22;59598;48.112;16.280;2023-04-06T07:44:37;5.00;1.00
54788;DHT22;59598;48.112;16.280;2023-04-06T07:47:11;5.10;99.90
54788;DHT22;59598;48.112;16.280;2023-04-06T07:49:43;5.10;99.90
54788;DHT22;59598;48.112;16.280;2023-04-06T07:52:17;5.20;99.90
54788;DHT22;59598;48.112;16.280;2023-04-06T07:54:49;5.30;99.90
54788;DHT22;59598;48.112;16.280;2023-04-06T07:57:23;5.60;99.90
54788;DHT22;59598;48.112;16.280;2023-04-06T07:59:57;5.80;99.90
54788;DHT22;59598;48.112;16.280;2023-04-06T08:05:03;6.00;99.90
54788;DHT22;59598;48.112;16.280;2023-04-06T08:07:39;6.20;99.90
54788;DHT22;59598;48.112;16.280;2023-04-06T08:10:12;6.20;99.90
54788;DHT22;59598;48.112;16.280;2023-04-06T08:12:44;6.40;99.90
54788;DHT22;59598;48.112;16.280;2023-04-06T08:15:17;6.50;99.90
54788;DHT22;59598;48.112;16.280;2023-04-06T08:17:49;6.60;99.90
54788;DHT22;59598;48.112;16.280;2023-04-06T08:20:20;6.70;99.90
54788;DHT22;59598;48.112;16.280;2023-04-06T08:22:51;6.40;99.90
54788;DHT22;59598;48.112;16.280;2023-04-06T08:25:22;6.30;99.90
54788;DHT22;59598;48.112;16.280;2023-04-06T08:27:56;6.30;99.90
54788;DHT22;59598;48.112;16.280;2023-04-06T08:30:30;6.50;99.90
54788;DHT22;59598;48.112;16.280;2023-04-06T08:33:02;6.50;99.90
54788;DHT22;59598;48.112;16.280;2023-04-06T08:35:36;6.60;99.90
54788;DHT22;59598;48.112;16.280;2023-04-06T08:38:11;6.70;99.90
54788;DHT22;59598;48.112;16.280;2023-04-06T08:40:50;6.80;99.90
54788;DHT22;59598;48.112;16.280;2023-04-06T08:43:23;6.80;99.90
54788;DHT22;59598;48.112;16.280;2023-04-06T08:45:55;6.70;92.30
54788;DHT22;59598;48.112;16.280;2023-04-06T08:48:29;6.60;99.90
54788;DHT22;59598;48.112;16.280;2023-04-06T08:51:06;6.90;99.90
54788;DHT22;59598;48.112;16.280;2023-04-06T08:53:38;6.80;34.50
54788;DHT22;59598;48.112;16.280;2023-04-06T08:56:12;6.70;8.70
54788;DHT22;59598;48.112;16.280;2023-04-06T08:58:45;7.20;35.00
54788;DHT22;59598;48.112;16.280;2023-04-06T09:01:21;7.30;1.00
54788;DHT22;59598;48.112;16.280;2023-04-06T09:04:01;7.60;1.00
54788;DHT22;59598;48.112;16.280;2023-04-06T09:06:36;7.20;1.00
54788;DHT22;59598;48.112;16.280;2023-04-06T09:09:12;7.00;1.00
54788;DHT22;59598;48.112;16.280;2023-04-06T09:11:50;7.00;1.00
54788;DHT22;59598;48.112;16.280;2023-04-06T09:14:38;7.20;1.00
54788;DHT22;59598;48.112;16.280;2023-04-06T09:17:22;7.20;1.00
54788;DHT22;59598;48.112;16.280;2023-04-06T09:19:57;7.40;1.00
54788;DHT22;59598;48.112;16.280;2023-04-06T09:22:39;7.50;1.00
54788;DHT22;59598;48.112;16.280;2023-04-06T09:25:21;7.80;1.00
54788;DHT22;59598;48.112;16.280;2023-04-06T09:28:04;8.00;1.00
54788;DHT22;59598;48.112;16.280;2023-04-06T09:30:50;7.90;1.00
54788;DHT22;59598;48.112;16.280;2023-04-06T09:33:24;8.40;1.00
54788;DHT22;59598;48.112;16.280;2023-04-06T09:35:55;8.20;1.00
54788;DHT22;59598;48.112;16.280;2023-04-06T09:38:29;8.20;1.00
54788;DHT22;59598;48.112;16.280;2023-04-06T09:41:01;7.70;1.00
54788;DHT22;59598;48.112;16.280;2023-04-06T09:43:35;8.10;1.00
54788;DHT22;59598;48.112;16.280;2023-04-06T09:46:09;8.30;1.00
54788;DHT22;59598;48.112;16.280;2023-04-06T09:48:42;8.20;1.00
54788;DHT22;59598;48.112;16.280;2023-04-06T09:51:18;8.40;1.00
54788;DHT22;59598;48.112;16.280;2023-04-06T09:53:53;8.70;1.00
54788;DHT22;59598;48.112;16.280;2023-04-06T09:56:28;9.10;1.00
54788;DHT22;59598;48.112;16.280;2023-04-06T09:59:12;8.90;1.00
54788;DHT22;59598;48.112;16.280;2023-04-06T10:01:50;8.80;1.00
54788;DHT22;59598;48.112;16.280;2023-04-06T10:07:33;8.50;1.00
54788;DHT22;59598;48.112;16.280;2023-04-06T10:10:12;8.60;1.00
54788;DHT22;59598;48.112;16.280;2023-04-06T10:12:45;8.30;1.00
54788;DHT22;59598;48.112;16.280;2023-04-06T10:15:24;8.60;1.00
54788;DHT22;59598;48.112;16.280;2023-04-06T10:18:00;9.30;1.00
54788;DHT22;59598;48.112;16.280;2023-04-06T10:20:49;9.60;1.00
54788;DHT22;59598;48.112;16.280;2023-04-06T10:23:40;9.20;1.00
54788;DHT22;59598;48.112;16.280;2023-04-06T10:26:17;9.20;1.00
54788;DHT22;59598;48.112;16.280;2023-04-06T10:28:53;8.90;1.00
54788;DHT22;59598;48.112;16.280;2023-04-06T10:31:26;9.60;1.00
54788;DHT22;59598;48.112;16.280;2023-04-06T10:34:02;9.70;1.00
54788;DHT22;59598;48.112;16.280;2023-04-06T10:36:37;10.10;1.00
54788;DHT22;59598;48.112;16.280;2023-04-06T10:39:09;9.90;1.00
54788;DHT22;59598;48.112;16.280;2023-04-06T10:41:44;8.50;1.00
54788;DHT22;59598;48.112;16.280;2023-04-06T10:44:21;8.60;1.00
54788;DHT22;59598;48.112;16.280;2023-04-06T10:47:00;8.90;1.00
54788;DHT22;59598;48.112;16.280;2023-04-06T10:49:31;9.00;1.00
54788;DHT22;59598;48.112;16.280;2023-04-06T10:52:03;9.90;1.00
54788;DHT22;59598;48.112;16.280;2023-04-06T10:54:35;10.40;1.00
54788;DHT22;59598;48.112;16.280;2023-04-06T10:57:16;11.10;99.90
54788;DHT22;59598;48.112;16.280;2023-04-06T11:00:02;11.20;1.00
54788;DHT22;59598;48.112;16.280;2023-04-06T11:02:36;11.30;99.90
54788;DHT22;59598;48.112;16.280;2023-04-06T11:05:11;11.60;99.90
54788;DHT22;59598;48.112;16.280;2023-04-06T11:07:46;11.10;99.90
54788;DHT22;59598;48.112;16.280;2023-04-06T11:10:22;11.40;99.90
54788;DHT22;59598;48.112;16.280;2023-04-06T11:12:54;11.20;99.90
54788;DHT22;59598;48.112;16.280;2023-04-06T11:15:25;11.50;99.90
54788;DHT22;59598;48.112;16.280;2023-04-06T11:18:02;11.80;99.90
54788;DHT22;59598;48.112;16.280;2023-04-06T11:20:34;12.10;99.90
54788;DHT22;59598;48.112;16.280;2023-04-06T11:23:05;12.40;99.90
54788;DHT22;59598;48.112;16.280;2023-04-06T11:25:50;12.20;99.90
54788;DHT22;59598;48.112;16.280;2023-04-06T11:28:24;12.60;99.90
54788;DHT22;59598;48.112;16.280;2023-04-06T11:30:58;11.90;99.90
54788;DHT22;59598;48.112;16.280;2023-04-06T11:33:38;12.00;99.90
54788;DHT22;59598;48.112;16.280;2023-04-06T11:36:16;11.60;99.90
54788;DHT22;59598;48.112;16.280;2023-04-06T11:38:53;12.10;99.90
54788;DHT22;59598;48.112;16.280;2023-04-06T11:41:27;11.50;99.90
54788;DHT22;59598;48.112;16.280;2023-04-06T11:44:03;11.90;99.90
54788;DHT22;59598;48.112;16.280;2023-04-06T11:46:38;11.60;99.90
54788;DHT22;59598;48.112;16.280;2023-04-06T11:49:15;11.40;99.90
54788;DHT22;59598;48.112;16.280;2023-04-06T11:51:48;11.40;99.90
54788;DHT22;59598;48.112;16.280;2023-04-06T11:54:36;11.60;99.90
54788;DHT22;59598;48.112;16.280;2023-04-06T11:57:13;11.30;99.90
54788;DHT22;59598;48.112;16.280;2023-04-06T11:59:44;11.50;99.90
54788;DHT22;59598;48.112;16.280;2023-04-06T12:02:16;12.10;99.90
54788;DHT22;59598;48.112;16.280;2023-04-06T12:04:52;11.70;99.90
54788;DHT22;59598;48.112;16.280;2023-04-06T12:07:29;12.30;99.90
54788;DHT22;59598;48.112;16.280;2023-04-06T12:10:02;11.50;99.90
54788;DHT22;59598;48.112;16.280;2023-04-06T12:12:34;11.70;99.90
54788;DHT22;59598;48.112;16.280;2023-04-06T12:15:06;12.50;99.90
54788;DHT22;59598;48.112;16.280;2023-04-06T12:17:38;13.10;99.90
54788;DHT22;59598;48.112;16.280;2023-04-06T12:20:12;12.30;99.90
54788;DHT22;59598;48.112;16.280;2023-04-06T12:22:44;11.70;99.90
54788;DHT22;59598;48.112;16.280;2023-04-06T12:25:16;11.60;99.90
54788;DHT22;59598;48.112;16.280;2023-04-06T12:27:49;11.90;99.90
54788;DHT22;59598;48.112;16.280;2023-04-06T12:30:23;11.60;99.90
54788;DHT22;59598;48.112;16.280;2023-04-06T12:32:56;11.90;99.90
54788;DHT22;59598;48.112;16.280;2023-04-06T12:35:33;12.20;99.90
54788;DHT22;59598;48.112;16.280;2023-04-06T12:38:06;12.50;99.90
54788;DHT22;59598;48.112;16.280;2023-04-06T12:40:38;12.30;99.90
54788;DHT22;59598;48.112;16.280;2023-04-06T12:43:12;12.30;99.90
54788;DHT22;59598;48.112;16.280;2023-04-06T12:45:44;12.50;99.90
54788;DHT22;59598;48.112;16.280;2023-04-06T12:48:15;12.60;99.90
54788;DHT22;59598;48.112;16.280;2023-04-06T12:50:56;12.60;99.90
54788;DHT22;59598;48.112;16.280;2023-04-06T12:53:27;13.30;99.90
54788;DHT22;59598;48.112;16.280;2023-04-06T12:56:01;13.50;99.90
54788;DHT22;59598;48.112;16.280;2023-04-06T12:58:33;13.00;99.90
54788;DHT22;59598;48.112;16.280;2023-04-06T13:01:07;12.50;99.90
54788;DHT22;59598;48.112;16.280;2023-04-06T13:03:44;12.10;99.90
54788;DHT22;59598;48.112;16.280;2023-04-06T13:06:16;12.40;99.90
54788;DHT22;59598;48.112;16.280;2023-04-06T13:08:52;13.00;99.90
54788;DHT22;59598;48.112;16.280;2023-04-06T13:11:26;13.60;99.90
54788;DHT22;59598;48.112;16.280;2023-04-06T13:14:03;12.30;99.90
54788;DHT22;59598;48.112;16.280;2023-04-06T13:16:37;12.30;99.90
54788;DHT22;59598;48.112;16.280;2023-04-06T13:19:11;12.40;99.90
54788;DHT22;59598;48.112;16.280;2023-04-06T13:21:45;12.40;99.90
54788;DHT22;59598;48.112;16.280;2023-04-06T13:24:21;12.50;99.90
54788;DHT22;59598;48.112;16.280;2023-04-06T13:26:57;12.50;99.90
54788;DHT22;59598;48.112;16.280;2023-04-06T13:29:28;12.30;99.90
54788;DHT22;59598;48.112;16.280;2023-04-06T13:32:02;12.70;99.90
54788;DHT22;59598;48.112;16.280;2023-04-06T13:34:33;12.90;99.90
54788;DHT22;59598;48.112;16.280;2023-04-06T13:37:04;12.90;99.90
54788;DHT22;59598;48.112;16.280;2023-04-06T13:39:37;12.80;99.90
54788;DHT22;59598;48.112;16.280;2023-04-06T13:42:10;12.60;99.90
54788;DHT22;59598;48.112;16.280;2023-04-06T13:44:44;12.40;99.90
54788;DHT22;59598;48.112;16.280;2023-04-06T13:47:21;11.60;99.90
54788;DHT22;59598;48.112;16.280;2023-04-06T13:49:58;11.70;99.90
54788;DHT22;59598;48.112;16.280;2023-04-06T13:52:29;12.00;99.90
54788;DHT22;59598;48.112;16.280;2023-04-06T13:55:00;12.20;99.90
54788;DHT22;59598;48.112;16.280;2023-04-06T13:57:36;13.40;99.90
54788;DHT22;59598;48.112;16.280;2023-04-06T14:00:11;14.30;99.90
54788;DHT22;59598;48.112;16.280;2023-04-06T14:02:45;14.20;99.90
54788;DHT22;59598;48.112;16.280;2023-04-06T14:05:20;13.40;99.90
54788;DHT22;59598;48.112;16.280;2023-04-06T14:07:54;12.30;99.90
54788;DHT22;59598;48.112;16.280;2023-04-06T14:10:26;12.50;99.90
54788;DHT22;59598;48.112;16.280;2023-04-06T14:13:02;13.10;99.90
54788;DHT22;59598;48.112;16.280;2023-04-06T14:15:36;13.40;99.90
54788;DHT22;59598;48.112;16.280;2023-04-06T14:18:10;13.30;99.90
54788;DHT22;59598;48.112;16.280;2023-04-06T14:20:57;12.70;99.90
54788;DHT22;59598;48.112;16.280;2023-04-06T14:23:33;12.50;99.90
54788;DHT22;59598;48.112;16.280;2023-04-06T14:26:07;12.90;99.90
54788;DHT22;59598;48.112;16.280;2023-04-06T14:28:39;12.60;99.90
54788;DHT22;59598;48.112;16.280;2023-04-06T14:31:18;12.80;99.90
54788;DHT22;59598;48.112;16.280;2023-04-06T14:33:55;12.60;99.90
54788;DHT22;59598;48.112;16.280;2023-04-06T14:36:26;12.70;99.90
54788;DHT22;59598;48.112;16.280;2023-04-06T14:38:59;12.50;99.90
54788;DHT22;59598;48.112;16.280;2023-04-06T14:41:33;12.30;99.90
54788;DHT22;59598;48.112;16.280;2023-04-06T14:44:08;12.30;99.90
54788;DHT22;59598;48.112;16.280;2023-04-06T14:46:43;13.00;99.90
54788;DHT22;59598;48.112;16.280;2023-04-06T14:49:16;13.10;99.90
54788;DHT22;59598;48.112;16.280;2023-04-06T14:51:51;13.10;99.90
54788;DHT22;59598;48.112;16.280;2023-04-06T14:54:27;12.10;99.90
54788;DHT22;59598;48.112;16.280;2023-04-06T14:56:58;12.40;99.90
54788;DHT22;59598;48.112;16.280;2023-04-06T14:59:32;11.80;99.90
54788;DHT22;59598;48.112;16.280;2023-04-06T15:02:04;12.40;99.90
54788;DHT22;59598;48.112;16.280;2023-04-06T15:04:38;12.60;99.90
54788;DHT22;59598;48.112;16.280;2023-04-06T15:07:10;12.70;99.90
54788;DHT22;59598;48.112;16.280;2023-04-06T15:09:43;13.00;99.90
54788;DHT22;59598;48.112;16.280;2023-04-06T15:12:16;12.70;99.90
54788;DHT22;59598;48.112;16.280;2023-04-06T15:14:50;13.20;99.90
54788;DHT22;59598;48.112;16.280;2023-04-06T15:17:21;13.50;99.90
54788;DHT22;59598;48.112;16.280;2023-04-06T15:19:52;13.30;99.90
54788;DHT22;59598;48.112;16.280;2023-04-06T15:22:24;13.00;99.90
54788;DHT22;59598;48.112;16.280;2023-04-06T15:24:57;12.50;99.90
54788;DHT22;59598;48.112;16.280;2023-04-06T15:27:29;12.50;99.90
54788;DHT22;59598;48.112;16.280;2023-04-06T15:30:03;12.20;99.90
54788;DHT22;59598;48.112;16.280;2023-04-06T15:32:35;12.80;99.90
54788;DHT22;59598;48.112;16.280;2023-04-06T15:35:13;12.80;99.90
54788;DHT22;59598;48.112;16.280;2023-04-06T15:37:49;12.60;99.90
54788;DHT22;59598;48.112;16.280;2023-04-06T15:40:20;12.40;99.90
54788;DHT22;59598;48.112;16.280;2023-04-06T15:42:56;12.40;99.90
54788;DHT22;59598;48.112;16.280;2023-04-06T15:45:35;12.20;99.90
54788;DHT22;59598;48.112;16.280;2023-04-06T15:48:09;12.20;99.90
54788;DHT22;59598;48.112;16.280;2023-04-06T15:50:43;12.10;99.90
54788;DHT22;59598;48.112;16.280;2023-04-06T15:53:17;12.10;99.90
54788;DHT22;59598;48.112;16.280;2023-04-06T15:55:49;11.90;99.90
54788;DHT22;59598;48.112;16.280;2023-04-06T15:58:24;11.40;99.90
54788;DHT22;59598;48.112;16.280;2023-04-06T16:00:56;10.80;99.90
54788;DHT22;59598;48.112;16.280;2023-04-06T16:03:30;10.70;99.90
54788;DHT22;59598;48.112;16.280;2023-04-06T16:06:03;10.80;99.90
54788;DHT22;59598;48.112;16.280;2023-04-06T16:08:34;10.60;99.90
54788;DHT22;59598;48.112;16.280;2023-04-06T16:11:06;10.30;99.90
54788;DHT22;59598;48.112;16.280;2023-04-06T16:13:43;10.20;99.90
54788;DHT22;59598;48.112;16.280;2023-04-06T16:16:15;10.20;99.90
54788;DHT22;59598;48.112;16.280;2023-04-06T16:18:49;10.00;99.90
54788;DHT22;59598;48.112;16.280;2023-04-06T16:21:20;10.00;99.90